sensor_id;sensor_type;location;lat;lon;timestamp;temperature;humidity
2657;DHT22;1338;48.176;11.792;2023-07-20T00:01:22;19.00;1.00
2657;DHT22;1338;48.176;11.792;2023-07-20T00:03:51;19.00;1.00
2657;DHT22;1338;48.176;11.792;2023-07-20T00:06:23;19.10;1.00
2657;DHT22;1338;48.176;11.792;2023-07-20T00:08:53;19.20;1.00
2657;DHT22;1338;48.176;11.792;2023-07-20T00:11:21;19.20;1.00
2657;DHT22;1338;48.176;11.792;2023-07-20T00:13:52;19.30;1.00
2657;DHT22;1338;48.176;11.792;2023-07-20T00:16:22;19.20;1.00
2657;DHT22;1338;48.176;11.792;2023-07-20T00:18:53;19.20;1.00
2657;DHT22;1338;48.176;11.792;2023-07-20T00:21:22;19.20;1.00
2657;DHT22;1338;48.176;11.792;2023-07-20T00:23:50;19.10;1.00
2657;DHT22;1338;48.176;11.792;2023-07-20T00:26:19;19.20;1.00
2657;DHT22;1338;48.176;11.792;2023-07-20T00:28:50;19.10;1.00
2657;DHT22;1338;48.176;11.792;2023-07-20T00:31:21;19.10;1.00
2657;DHT22;1338;48.176;11.792;2023-07-20T00:33:50;19.30;1.00
2657;DHT22;1338;48.176;11.792;2023-07-20T00:36:18;19.20;1.00
2657;DHT22;1338;48.176;11.792;2023-07-20T00:38:48;19.10;1.00
2657;DHT22;1338;48.176;11.792;2023-07-20T00:41:17;19.30;1.00
2657;DHT22;1338;48.176;11.792;2023-07-20T00:43:46;19.30;1.00
2657;DHT22;1338;48.176;11.792;2023-07-20T00:46:14;19.10;1.00
2657;DHT22;1338;48.176;11.792;2023-07-20T00:48:46;19.00;1.00
2657;DHT22;1338;48.176;11.792;2023-07-20T00:51:15;19.00;1.00
2657;DHT22;1338;48.176;11.792;2023-07-20T00:53:45;18.90;1.00
2657;DHT22;1338;48.176;11.792;2023-07-20T00:56:15;18.80;1.00
2657;DHT22;1338;48.176;11.792;2023-07-20T00:58:45;18.70;1.00
2657;DHT22;1338;48.176;11.792;2023-07-20T01:01:14;18.60;1.00
2657;DHT22;1338;48.176;11.792;2023-07-20T01:03:45;18.60;1.00
2657;DHT22;1338;48.176;11.792;2023-07-20T01:06:23;18.80;1.00
2657;DHT22;1338;48.176;11.792;2023-07-20T01:09:01;18.80;1.00
2657;DHT22;1338;48.176;11.792;2023-07-20T01:11:36;18.90;1.00
2657;DHT22;1338;48.176;11.792;2023-07-20T01:14:06;18.90;1.00
2657;DHT22;1338;48.176;11.792;2023-07-20T01:16:35;19.00;1.00
2657;DHT22;1338;48.176;11.792;2023-07-20T01:19:05;19.00;1.00
2657;DHT22;1338;48.176;11.792;2023-07-20T01:21:50;18.90;1.00
2657;DHT22;1338;48.176;11.792;2023-07-20T01:24:53;18.80;1.00
2657;DHT22;1338;48.176;11.792;2023-07-20T01:27:48;18.70;1.00
2657;DHT22;1338;48.176;11.792;2023-07-20T01:30:46;18.70;1.00
2657;DHT22;1338;48.176;11.792;2023-07-20T01:33:19;18.80;1.00
2657;DHT22;1338;48.176;11.792;2023-07-20T01:35:54;18.90;1.00
2657;DHT22;1338;48.176;11.792;2023-07-20T01:38:24;18.90;1.00
2657;DHT22;1338;48.176;11.792;2023-07-20T01:40:53;18.90;1.00
2657;DHT22;1338;48.176;11.792;2023-07-20T01:43:22;19.00;1.00
2657;DHT22;1338;48.176;11.792;2023-07-20T01:45:52;19.00;1.00
2657;DHT22;1338;48.176;11.792;2023-07-20T01:48:23;19.00;1.00
2657;DHT22;1338;48.176;11.792;2023-07-20T01:50:52;19.00;1.00
2657;DHT22;1338;48.176;11.792;2023-07-20T01:53:21;19.30;1.00
2657;DHT22;1338;48.176;11.792;2023-07-20T01:55:52;19.20;1.00
2657;DHT22;1338;48.176;11.792;2023-07-20T01:58:22;19.30;1.00
2657;DHT22;1338;48.176;11.792;2023-07-20T02:00:51;19.30;1.00
2657;DHT22;1338;48.176;11.792;2023-07-20T02:03:20;19.30;1.00
2657;DHT22;1338;48.176;11.792;2023-07-20T02:05:55;19.30;1.00
2657;DHT22;1338;48.176;11.792;2023-07-20T02:08:25;19.30;1.00
2657;DHT22;1338;48.176;11.792;2023-07-20T02:10:56;19.40;1.00
2657;DHT22;1338;48.176;11.792;2023-07-20T02:13:31;19.40;1.00
2657;DHT22;1338;48.176;11.792;2023-07-20T02:16:00;19.30;1.00
2657;DHT22;1338;48.176;11.792;2023-07-20T02:18:30;19.20;1.00
2657;DHT22;1338;48.176;11.792;2023-07-20T02:21:04;19.20;1.00
2657;DHT22;1338;48.176;11.792;2023-07-20T02:23:33;19.20;1.00
2657;DHT22;1338;48.176;11.792;2023-07-20T02:26:03;19.20;1.00
2657;DHT22;1338;48.176;11.792;2023-07-20T02:28:33;19.20;1.00
2657;DHT22;1338;48.176;11.792;2023-07-20T02:31:02;19.30;1.00
2657;DHT22;1338;48.176;11.792;2023-07-20T02:33:32;19.30;1.00
2657;DHT22;1338;48.176;11.792;2023-07-20T02:36:03;19.30;1.00
2657;DHT22;1338;48.176;11.792;2023-07-20T02:38:32;19.40;1.00
2657;DHT22;1338;48.176;11.792;2023-07-20T02:41:01;19.30;1.00
2657;DHT22;1338;48.176;11.792;2023-07-20T02:43:32;19.40;1.00
2657;DHT22;1338;48.176;11.792;2023-07-20T02:46:01;19.20;1.00
2657;DHT22;1338;48.176;11.792;2023-07-20T02:48:30;19.20;1.00
2657;DHT22;1338;48.176;11.792;2023-07-20T02:51:00;19.30;1.00
2657;DHT22;1338;48.176;11.792;2023-07-20T02:53:30;19.40;1.00
2657;DHT22;1338;48.176;11.792;2023-07-20T02:56:00;19.30;1.00
2657;DHT22;1338;48.176;11.792;2023-07-20T02:58:28;19.10;1.00
2657;DHT22;1338;48.176;11.792;2023-07-20T03:00:57;19.00;1.00
2657;DHT22;1338;48.176;11.792;2023-07-20T03:03:26;19.10;1.00
2657;DHT22;1338;48.176;11.792;2023-07-20T03:05:55;19.00;1.00
2657;DHT22;1338;48.176;11.792;2023-07-20T03:08:26;19.00;1.00
2657;DHT22;1338;48.176;11.792;2023-07-20T03:10:58;19.00;1.00
2657;DHT22;1338;48.176;11.792;2023-07-20T03:13:29;19.00;1.00
2657;DHT22;1338;48.176;11.792;2023-07-20T03:15:58;18.90;1.00
2657;DHT22;1338;48.176;11.792;2023-07-20T03:18:28;18.70;1.00
2657;DHT22;1338;48.176;11.792;2023-07-20T03:20:57;18.70;1.00
2657;DHT22;1338;48.176;11.792;2023-07-20T03:23:30;18.70;1.00
2657;DHT22;1338;48.176;11.792;2023-07-20T03:26:00;18.50;1.00
2657;DHT22;1338;48.176;11.792;2023-07-20T03:28:30;18.40;1.00
2657;DHT22;1338;48.176;11.792;2023-07-20T03:30:59;18.30;1.00
2657;DHT22;1338;48.176;11.792;2023-07-20T03:33:31;18.10;15.20
2657;DHT22;1338;48.176;11.792;2023-07-20T03:36:01;17.90;99.90
2657;DHT22;1338;48.176;11.792;2023-07-20T03:38:32;17.80;99.90
2657;DHT22;1338;48.176;11.792;2023-07-20T03:41:04;18.10;99.90
2657;DHT22;1338;48.176;11.792;2023-07-20T03:43:36;18.30;1.00
2657;DHT22;1338;48.176;11.792;2023-07-20T03:46:04;18.30;1.00
2657;DHT22;1338;48.176;11.792;2023-07-20T03:48:34;18.40;1.00
2657;DHT22;1338;48.176;11.792;2023-07-20T03:51:03;18.20;1.00
2657;DHT22;1338;48.176;11.792;2023-07-20T03:53:32;17.50;1.00
2657;DHT22;1338;48.176;11.792;2023-07-20T03:56:04;17.00;99.90
2657;DHT22;1338;48.176;11.792;2023-07-20T03:58:33;16.80;99.90
2657;DHT22;1338;48.176;11.792;2023-07-20T04:01:02;16.80;1.00
2657;DHT22;1338;48.176;11.792;2023-07-20T04:03:31;16.60;1.00
2657;DHT22;1338;48.176;11.792;2023-07-20T04:06:02;16.60;1.00
2657;DHT22;1338;48.176;11.792;2023-07-20T04:08:31;16.60;1.00
2657;DHT22;1338;48.176;11.792;2023-07-20T04:11:01;16.50;1.00
2657;DHT22;1338;48.176;11.792;2023-07-20T04:13:32;16.40;1.00
2657;DHT22;1338;48.176;11.792;2023-07-20T04:16:03;16.50;1.00
2657;DHT22;1338;48.176;11.792;2023-07-20T04:18:32;16.40;1.00
2657;DHT22;1338;48.176;11.792;2023-07-20T04:21:02;16.50;1.00
2657;DHT22;1338;48.176;11.792;2023-07-20T04:23:31;16.50;1.00
2657;DHT22;1338;48.176;11.792;2023-07-20T04:26:00;16.50;1.00
2657;DHT22;1338;48.176;11.792;2023-07-20T04:28:31;16.50;1.00
2657;DHT22;1338;48.176;11.792;2023-07-20T04:31:09;16.50;1.00
2657;DHT22;1338;48.176;11.792;2023-07-20T04:33:38;16.50;1.00
2657;DHT22;1338;48.176;11.792;2023-07-20T04:36:08;16.70;1.00
2657;DHT22;1338;48.176;11.792;2023-07-20T04:38:39;17.10;1.00
2657;DHT22;1338;48.176;11.792;2023-07-20T04:41:13;16.90;1.00
2657;DHT22;1338;48.176;11.792;2023-07-20T04:43:47;16.70;1.00
2657;DHT22;1338;48.176;11.792;2023-07-20T04:46:23;16.60;1.00
2657;DHT22;1338;48.176;11.792;2023-07-20T04:48:53;16.60;1.00
2657;DHT22;1338;48.176;11.792;2023-07-20T04:51:22;16.70;1.00
2657;DHT22;1338;48.176;11.792;2023-07-20T04:53:56;16.80;1.00
2657;DHT22;1338;48.176;11.792;2023-07-20T04:56:30;16.80;1.00
2657;DHT22;1338;48.176;11.792;2023-07-20T04:59:00;16.90;1.00
2657;DHT22;1338;48.176;11.792;2023-07-20T05:01:29;16.90;1.00
2657;DHT22;1338;48.176;11.792;2023-07-20T05:03:58;17.20;1.00
2657;DHT22;1338;48.176;11.792;2023-07-20T05:06:27;17.30;1.00
2657;DHT22;1338;48.176;11.792;2023-07-20T05:08:56;17.30;1.00
2657;DHT22;1338;48.176;11.792;2023-07-20T05:11:25;17.10;1.00
2657;DHT22;1338;48.176;11.792;2023-07-20T05:13:54;17.10;1.00
2657;DHT22;1338;48.176;11.792;2023-07-20T05:16:29;17.40;1.00
2657;DHT22;1338;48.176;11.792;2023-07-20T05:19:02;17.30;1.00
2657;DHT22;1338;48.176;11.792;2023-07-20T05:21:31;17.50;1.00
2657;DHT22;1338;48.176;11.792;2023-07-20T05:24:03;17.30;1.00
2657;DHT22;1338;48.176;11.792;2023-07-20T05:26:34;17.50;1.00
2657;DHT22;1338;48.176;11.792;2023-07-20T05:29:03;17.40;1.00
2657;DHT22;1338;48.176;11.792;2023-07-20T05:31:37;17.30;1.00
2657;DHT22;1338;48.176;11.792;2023-07-20T05:34:07;17.40;99.90
2657;DHT22;1338;48.176;11.792;2023-07-20T05:36:36;17.50;99.90
2657;DHT22;1338;48.176;11.792;2023-07-20T05:39:05;17.60;99.90
2657;DHT22;1338;48.176;11.792;2023-07-20T05:41:34;17.60;99.90
2657;DHT22;1338;48.176;11.792;2023-07-20T05:44:03;17.60;99.90
2657;DHT22;1338;48.176;11.792;2023-07-20T05:46:32;17.70;99.90
2657;DHT22;1338;48.176;11.792;2023-07-20T05:49:20;17.80;99.90
2657;DHT22;1338;48.176;11.792;2023-07-20T05:51:49;17.80;99.90
2657;DHT22;1338;48.176;11.792;2023-07-20T05:54:21;17.80;99.90
2657;DHT22;1338;48.176;11.792;2023-07-20T05:56:50;17.90;99.90
2657;DHT22;1338;48.176;11.792;2023-07-20T05:59:21;17.90;99.90
2657;DHT22;1338;48.176;11.792;2023-07-20T06:01:53;17.90;99.90
2657;DHT22;1338;48.176;11.792;2023-07-20T06:04:26;17.90;99.90
2657;DHT22;1338;48.176;11.792;2023-07-20T06:06:56;17.90;99.90
2657;DHT22;1338;48.176;11.792;2023-07-20T06:09:27;17.90;99.90
2657;DHT22;1338;48.176;11.792;2023-07-20T06:11:57;18.00;99.90
2657;DHT22;1338;48.176;11.792;2023-07-20T06:14:25;17.90;99.90
2657;DHT22;1338;48.176;11.792;2023-07-20T06:16:54;17.90;99.90
2657;DHT22;1338;48.176;11.792;2023-07-20T06:19:27;17.90;99.90
2657;DHT22;1338;48.176;11.792;2023-07-20T06:22:02;18.00;99.90
2657;DHT22;1338;48.176;11.792;2023-07-20T06:24:32;18.20;99.90
2657;DHT22;1338;48.176;11.792;2023-07-20T06:27:01;18.30;93.30
2657;DHT22;1338;48.176;11.792;2023-07-20T06:29:30;18.30;75.60
2657;DHT22;1338;48.176;11.792;2023-07-20T06:32:00;18.40;64.70
2657;DHT22;1338;48.176;11.792;2023-07-20T06:34:30;18.40;57.20
2657;DHT22;1338;48.176;11.792;2023-07-20T06:37:04;18.40;47.60
2657;DHT22;1338;48.176;11.792;2023-07-20T06:39:33;18.50;28.10
2657;DHT22;1338;48.176;11.792;2023-07-20T06:42:06;18.70;11.50
2657;DHT22;1338;48.176;11.792;2023-07-20T06:44:37;18.90;17.10
2657;DHT22;1338;48.176;11.792;2023-07-20T06:47:06;18.80;1.00
2657;DHT22;1338;48.176;11.792;2023-07-20T06:49:36;18.80;1.00
2657;DHT22;1338;48.176;11.792;2023-07-20T06:52:05;18.80;1.00
2657;DHT22;1338;48.176;11.792;2023-07-20T06:54:35;18.80;1.00
2657;DHT22;1338;48.176;11.792;2023-07-20T06:57:09;18.70;1.00
2657;DHT22;1338;48.176;11.792;2023-07-20T06:59:42;18.90;1.00
2657;DHT22;1338;48.176;11.792;2023-07-20T07:02:13;19.20;1.00
2657;DHT22;1338;48.176;11.792;2023-07-20T07:04:43;19.00;1.00
2657;DHT22;1338;48.176;11.792;2023-07-20T07:07:14;19.00;1.00
2657;DHT22;1338;48.176;11.792;2023-07-20T07:09:53;19.00;1.00
2657;DHT22;1338;48.176;11.792;2023-07-20T07:12:23;18.80;1.00
2657;DHT22;1338;48.176;11.792;2023-07-20T07:14:51;18.80;1.00
2657;DHT22;1338;48.176;11.792;2023-07-20T07:17:21;19.30;1.00
2657;DHT22;1338;48.176;11.792;2023-07-20T07:19:54;19.30;1.00
2657;DHT22;1338;48.176;11.792;2023-07-20T07:22:24;19.00;1.00
2657;DHT22;1338;48.176;11.792;2023-07-20T07:24:53;19.00;1.00
2657;DHT22;1338;48.176;11.792;2023-07-20T07:27:22;19.40;1.00
2657;DHT22;1338;48.176;11.792;2023-07-20T07:29:50;19.10;1.00
2657;DHT22;1338;48.176;11.792;2023-07-20T07:32:19;19.10;1.00
2657;DHT22;1338;48.176;11.792;2023-07-20T07:34:48;19.30;1.00
2657;DHT22;1338;48.176;11.792;2023-07-20T07:37:18;19.50;1.00
2657;DHT22;1338;48.176;11.792;2023-07-20T07:39:51;19.40;1.00
2657;DHT22;1338;48.176;11.792;2023-07-20T07:42:19;19.30;1.00
2657;DHT22;1338;48.176;11.792;2023-07-20T07:44:51;19.30;1.00
2657;DHT22;1338;48.176;11.792;2023-07-20T07:47:20;19.40;1.00
2657;DHT22;1338;48.176;11.792;2023-07-20T07:49:49;19.40;1.00
2657;DHT22;1338;48.176;11.792;2023-07-20T07:52:20;19.40;1.00
2657;DHT22;1338;48.176;11.792;2023-07-20T07:54:50;19.30;1.00
2657;DHT22;1338;48.176;11.792;2023-07-20T07:57:18;19.40;1.00
2657;DHT22;1338;48.176;11.792;2023-07-20T07:59:47;19.50;1.00
2657;DHT22;1338;48.176;11.792;2023-07-20T08:02:16;19.40;1.00
2657;DHT22;1338;48.176;11.792;2023-07-20T08:04:46;19.40;1.00
2657;DHT22;1338;48.176;11.792;2023-07-20T08:07:15;19.50;1.00
2657;DHT22;1338;48.176;11.792;2023-07-20T08:09:44;19.40;1.00
2657;DHT22;1338;48.176;11.792;2023-07-20T08:12:13;19.30;1.00
2657;DHT22;1338;48.176;11.792;2023-07-20T08:14:44;19.40;1.00
2657;DHT22;1338;48.176;11.792;2023-07-20T08:17:15;19.40;1.00
2657;DHT22;1338;48.176;11.792;2023-07-20T08:19:44;19.60;1.00
2657;DHT22;1338;48.176;11.792;2023-07-20T08:22:13;19.80;1.00
2657;DHT22;1338;48.176;11.792;2023-07-20T08:24:41;19.90;1.00
2657;DHT22;1338;48.176;11.792;2023-07-20T08:27:11;20.10;1.00
2657;DHT22;1338;48.176;11.792;2023-07-20T08:29:40;20.10;1.00
2657;DHT22;1338;48.176;11.792;2023-07-20T08:32:08;20.30;1.00
2657;DHT22;1338;48.176;11.792;2023-07-20T08:34:37;20.50;1.00
2657;DHT22;1338;48.176;11.792;2023-07-20T08:37:05;20.40;1.00
2657;DHT22;1338;48.176;11.792;2023-07-20T08:39:36;20.40;1.00
2657;DHT22;1338;48.176;11.792;2023-07-20T08:42:06;20.50;1.00
2657;DHT22;1338;48.176;11.792;2023-07-20T08:44:36;20.30;1.00
2657;DHT22;1338;48.176;11.792;2023-07-20T08:47:06;20.80;1.00
2657;DHT22;1338;48.176;11.792;2023-07-20T08:49:35;20.50;1.00
2657;DHT22;1338;48.176;11.792;2023-07-20T08:52:06;20.50;1.00
2657;DHT22;1338;48.176;11.792;2023-07-20T08:54:35;20.30;1.00
2657;DHT22;1338;48.176;11.792;2023-07-20T08:57:05;20.40;1.00
2657;DHT22;1338;48.176;11.792;2023-07-20T08:59:38;20.20;1.00
2657;DHT22;1338;48.176;11.792;2023-07-20T09:02:07;20.40;1.00
2657;DHT22;1338;48.176;11.792;2023-07-20T09:04:44;20.30;1.00
2657;DHT22;1338;48.176;11.792;2023-07-20T09:07:13;20.50;1.00
2657;DHT22;1338;48.176;11.792;2023-07-20T09:09:42;20.30;1.00
2657;DHT22;1338;48.176;11.792;2023-07-20T09:12:14;20.50;1.00
2657;DHT22;1338;48.176;11.792;2023-07-20T09:14:45;20.60;1.00
2657;DHT22;1338;48.176;11.792;2023-07-20T09:17:14;20.50;1.00
2657;DHT22;1338;48.176;11.792;2023-07-20T09:19:48;20.60;1.00
2657;DHT22;1338;48.176;11.792;2023-07-20T09:22:16;20.70;1.00
2657;DHT22;1338;48.176;11.792;2023-07-20T09:24:46;20.80;1.00
2657;DHT22;1338;48.176;11.792;2023-07-20T09:27:15;21.20;1.00
2657;DHT22;1338;48.176;11.792;2023-07-20T09:29:53;20.60;1.00
2657;DHT22;1338;48.176;11.792;2023-07-20T09:32:22;20.50;1.00
2657;DHT22;1338;48.176;11.792;2023-07-20T09:34:52;20.50;1.00
2657;DHT22;1338;48.176;11.792;2023-07-20T09:37:21;20.80;1.00
2657;DHT22;1338;48.176;11.792;2023-07-20T09:39:52;20.90;1.00
2657;DHT22;1338;48.176;11.792;2023-07-20T09:42:24;21.40;1.00
2657;DHT22;1338;48.176;11.792;2023-07-20T09:44:59;22.10;1.00
2657;DHT22;1338;48.176;11.792;2023-07-20T09:47:28;22.50;1.00
2657;DHT22;1338;48.176;11.792;2023-07-20T09:49:58;21.50;1.00
2657;DHT22;1338;48.176;11.792;2023-07-20T09:52:31;21.90;1.00
2657;DHT22;1338;48.176;11.792;2023-07-20T09:55:03;21.70;1.00
2657;DHT22;1338;48.176;11.792;2023-07-20T09:57:32;21.60;1.00
2657;DHT22;1338;48.176;11.792;2023-07-20T10:00:04;22.20;1.00
2657;DHT22;1338;48.176;11.792;2023-07-20T10:02:43;22.20;1.00
2657;DHT22;1338;48.176;11.792;2023-07-20T10:05:13;21.80;1.00
2657;DHT22;1338;48.176;11.792;2023-07-20T10:07:44;21.80;1.00
2657;DHT22;1338;48.176;11.792;2023-07-20T10:10:15;22.20;1.00
2657;DHT22;1338;48.176;11.792;2023-07-20T10:12:46;21.50;1.00
2657;DHT22;1338;48.176;11.792;2023-07-20T10:15:20;21.30;1.00
2657;DHT22;1338;48.176;11.792;2023-07-20T10:18:02;21.50;1.00
2657;DHT22;1338;48.176;11.792;2023-07-20T10:20:33;21.80;1.00
2657;DHT22;1338;48.176;11.792;2023-07-20T10:23:04;22.50;1.00
2657;DHT22;1338;48.176;11.792;2023-07-20T10:25:33;22.20;1.00
2657;DHT22;1338;48.176;11.792;2023-07-20T10:28:05;22.70;1.00
2657;DHT22;1338;48.176;11.792;2023-07-20T10:30:36;22.50;1.00
2657;DHT22;1338;48.176;11.792;2023-07-20T10:33:05;22.50;1.00
2657;DHT22;1338;48.176;11.792;2023-07-20T10:35:51;22.10;1.00
2657;DHT22;1338;48.176;11.792;2023-07-20T10:38:20;22.10;1.00
2657;DHT22;1338;48.176;11.792;2023-07-20T10:41:16;22.50;1.00
2657;DHT22;1338;48.176;11.792;2023-07-20T10:43:47;22.40;1.00
2657;DHT22;1338;48.176;11.792;2023-07-20T10:46:41;23.10;1.00
2657;DHT22;1338;48.176;11.792;2023-07-20T10:49:11;22.40;1.00
2657;DHT22;1338;48.176;11.792;2023-07-20T10:51:42;22.30;1.00
2657;DHT22;1338;48.176;11.792;2023-07-20T10:54:46;22.40;1.00
2657;DHT22;1338;48.176;11.792;2023-07-20T10:57:33;22.40;1.00
2657;DHT22;1338;48.176;11.792;2023-07-20T11:00:10;22.40;1.00
2657;DHT22;1338;48.176;11.792;2023-07-20T11:02:44;22.60;1.00
2657;DHT22;1338;48.176;11.792;2023-07-20T11:05:34;22.80;1.00
2657;DHT22;1338;48.176;11.792;2023-07-20T11:08:05;24.00;1.00
2657;DHT22;1338;48.176;11.792;2023-07-20T11:10:34;23.90;1.00
2657;DHT22;1338;48.176;11.792;2023-07-20T11:13:20;23.90;1.00
2657;DHT22;1338;48.176;11.792;2023-07-20T11:16:02;23.60;1.00
2657;DHT22;1338;48.176;11.792;2023-07-20T11:18:35;23.40;1.00
2657;DHT22;1338;48.176;11.792;2023-07-20T11:21:11;23.10;1.00
2657;DHT22;1338;48.176;11.792;2023-07-20T11:23:39;22.60;1.00
2657;DHT22;1338;48.176;11.792;2023-07-20T11:26:08;22.70;1.00
2657;DHT22;1338;48.176;11.792;2023-07-20T11:28:39;22.60;1.00
2657;DHT22;1338;48.176;11.792;2023-07-20T11:31:07;23.30;1.00
2657;DHT22;1338;48.176;11.792;2023-07-20T11:33:38;23.80;1.00
2657;DHT22;1338;48.176;11.792;2023-07-20T11:36:08;24.20;1.00
2657;DHT22;1338;48.176;11.792;2023-07-20T11:38:41;23.40;1.00
2657;DHT22;1338;48.176;11.792;2023-07-20T11:41:11;23.40;1.00
2657;DHT22;1338;48.176;11.792;2023-07-20T11:43:41;24.20;1.00
2657;DHT22;1338;48.176;11.792;2023-07-20T11:46:10;23.10;1.00
2657;DHT22;1338;48.176;11.792;2023-07-20T11:48:43;23.80;1.00
2657;DHT22;1338;48.176;11.792;2023-07-20T11:51:15;24.00;1.00
2657;DHT22;1338;48.176;11.792;2023-07-20T11:53:45;23.90;1.00
2657;DHT22;1338;48.176;11.792;2023-07-20T11:56:14;24.10;1.00
2657;DHT22;1338;48.176;11.792;2023-07-20T11:58:43;24.50;1.00
2657;DHT22;1338;48.176;11.792;2023-07-20T12:01:13;24.30;1.00
2657;DHT22;1338;48.176;11.792;2023-07-20T12:03:44;24.60;1.00
2657;DHT22;1338;48.176;11.792;2023-07-20T12:06:13;24.30;1.00
2657;DHT22;1338;48.176;11.792;2023-07-20T12:08:43;25.20;1.00
2657;DHT22;1338;48.176;11.792;2023-07-20T12:11:12;24.30;1.00
2657;DHT22;1338;48.176;11.792;2023-07-20T12:13:42;24.60;1.00
2657;DHT22;1338;48.176;11.792;2023-07-20T12:16:12;24.30;1.00
2657;DHT22;1338;48.176;11.792;2023-07-20T12:18:43;24.20;1.00
2657;DHT22;1338;48.176;11.792;2023-07-20T12:21:12;24.20;1.00
2657;DHT22;1338;48.176;11.792;2023-07-20T12:23:42;24.30;1.00
2657;DHT22;1338;48.176;11.792;2023-07-20T12:26:11;24.60;1.00
2657;DHT22;1338;48.176;11.792;2023-07-20T12:28:43;24.10;1.00
2657;DHT22;1338;48.176;11.792;2023-07-20T12:31:12;25.00;1.00
2657;DHT22;1338;48.176;11.792;2023-07-20T12:33:43;25.50;1.00
2657;DHT22;1338;48.176;11.792;2023-07-20T12:36:12;25.60;1.00
2657;DHT22;1338;48.176;11.792;2023-07-20T12:38:41;25.70;1.00
2657;DHT22;1338;48.176;11.792;2023-07-20T12:41:11;25.70;1.00
2657;DHT22;1338;48.176;11.792;2023-07-20T12:43:43;25.70;1.00
2657;DHT22;1338;48.176;11.792;2023-07-20T12:46:13;25.80;1.00
2657;DHT22;1338;48.176;11.792;2023-07-20T12:48:43;25.90;1.00
2657;DHT22;1338;48.176;11.792;2023-07-20T12:51:16;25.10;1.00
2657;DHT22;1338;48.176;11.792;2023-07-20T12:53:47;25.60;1.00
2657;DHT22;1338;48.176;11.792;2023-07-20T12:56:16;25.80;1.00
2657;DHT22;1338;48.176;11.792;2023-07-20T12:58:48;25.20;1.00
2657;DHT22;1338;48.176;11.792;2023-07-20T13:01:17;25.50;1.00
2657;DHT22;1338;48.176;11.792;2023-07-20T13:03:48;25.40;1.00
2657;DHT22;1338;48.176;11.792;2023-07-20T13:06:20;24.90;1.00
2657;DHT22;1338;48.176;11.792;2023-07-20T13:08:52;24.00;1.00
2657;DHT22;1338;48.176;11.792;2023-07-20T13:11:23;24.50;1.00
2657;DHT22;1338;48.176;11.792;2023-07-20T13:13:52;24.70;1.00
2657;DHT22;1338;48.176;11.792;2023-07-20T13:16:20;25.60;1.00
2657;DHT22;1338;48.176;11.792;2023-07-20T13:18:51;24.80;1.00
2657;DHT22;1338;48.176;11.792;2023-07-20T13:21:20;25.00;1.00
2657;DHT22;1338;48.176;11.792;2023-07-20T13:23:52;24.10;1.00
2657;DHT22;1338;48.176;11.792;2023-07-20T13:26:21;24.90;1.00
2657;DHT22;1338;48.176;11.792;2023-07-20T13:28:50;24.90;1.00
2657;DHT22;1338;48.176;11.792;2023-07-20T13:31:22;24.20;1.00
2657;DHT22;1338;48.176;11.792;2023-07-20T13:33:52;24.50;1.00
2657;DHT22;1338;48.176;11.792;2023-07-20T13:36:26;24.20;1.00
2657;DHT22;1338;48.176;11.792;2023-07-20T13:38:56;23.80;1.00
2657;DHT22;1338;48.176;11.792;2023-07-20T13:41:26;24.60;1.00
2657;DHT22;1338;48.176;11.792;2023-07-20T13:43:56;25.80;1.00
2657;DHT22;1338;48.176;11.792;2023-07-20T13:46:25;26.70;1.00
2657;DHT22;1338;48.176;11.792;2023-07-20T13:48:58;25.70;1.00
2657;DHT22;1338;48.176;11.792;2023-07-20T13:51:27;25.20;1.00
2657;DHT22;1338;48.176;11.792;2023-07-20T13:53:57;25.90;1.00
2657;DHT22;1338;48.176;11.792;2023-07-20T13:56:46;27.10;1.00
2657;DHT22;1338;48.176;11.792;2023-07-20T13:59:14;26.00;1.00
2657;DHT22;1338;48.176;11.792;2023-07-20T14:01:43;26.70;1.00
2657;DHT22;1338;48.176;11.792;2023-07-20T14:04:13;25.90;1.00
2657;DHT22;1338;48.176;11.792;2023-07-20T14:06:44;25.00;1.00
2657;DHT22;1338;48.176;11.792;2023-07-20T14:09:14;24.90;1.00
2657;DHT22;1338;48.176;11.792;2023-07-20T14:11:43;24.70;1.00
2657;DHT22;1338;48.176;11.792;2023-07-20T14:14:15;26.70;1.00
2657;DHT22;1338;48.176;11.792;2023-07-20T14:16:44;26.60;1.00
2657;DHT22;1338;48.176;11.792;2023-07-20T14:19:14;26.50;1.00
2657;DHT22;1338;48.176;11.792;2023-07-20T14:21:43;26.80;1.00
2657;DHT22;1338;48.176;11.792;2023-07-20T14:24:11;26.30;1.00
2657;DHT22;1338;48.176;11.792;2023-07-20T14:26:40;26.40;1.00
2657;DHT22;1338;48.176;11.792;2023-07-20T14:29:10;25.20;1.00
2657;DHT22;1338;48.176;11.792;2023-07-20T14:31:39;25.50;1.00
2657;DHT22;1338;48.176;11.792;2023-07-20T14:34:08;26.50;1.00
2657;DHT22;1338;48.176;11.792;2023-07-20T14:36:41;27.10;1.00
2657;DHT22;1338;48.176;11.792;2023-07-20T14:39:10;26.80;1.00
2657;DHT22;1338;48.176;11.792;2023-07-20T14:41:39;27.90;1.00
2657;DHT22;1338;48.176;11.792;2023-07-20T14:44:08;28.50;1.00
2657;DHT22;1338;48.176;11.792;2023-07-20T14:46:37;27.90;1.00
2657;DHT22;1338;48.176;11.792;2023-07-20T14:49:06;28.20;1.00
2657;DHT22;1338;48.176;11.792;2023-07-20T14:51:34;27.70;1.00
2657;DHT22;1338;48.176;11.792;2023-07-20T14:54:11;28.20;1.00
2657;DHT22;1338;48.176;11.792;2023-07-20T14:56:39;28.70;1.00
2657;DHT22;1338;48.176;11.792;2023-07-20T14:59:16;29.00;1.00
2657;DHT22;1338;48.176;11.792;2023-07-20T15:01:46;30.30;1.00
2657;DHT22;1338;48.176;11.792;2023-07-20T15:04:15;31.30;1.00
2657;DHT22;1338;48.176;11.792;2023-07-20T15:06:43;31.00;1.00
2657;DHT22;1338;48.176;11.792;2023-07-20T15:09:13;31.00;1.00
2657;DHT22;1338;48.176;11.792;2023-07-20T15:11:43;28.60;1.00
2657;DHT22;1338;48.176;11.792;2023-07-20T15:14:12;30.10;1.00
2657;DHT22;1338;48.176;11.792;2023-07-20T15:16:40;28.60;1.00
2657;DHT22;1338;48.176;11.792;2023-07-20T15:19:09;29.90;1.00
2657;DHT22;1338;48.176;11.792;2023-07-20T15:21:40;29.50;1.00
2657;DHT22;1338;48.176;11.792;2023-07-20T15:24:08;28.10;1.00
2657;DHT22;1338;48.176;11.792;2023-07-20T15:26:39;28.40;1.00
2657;DHT22;1338;48.176;11.792;2023-07-20T15:29:10;28.90;1.00
2657;DHT22;1338;48.176;11.792;2023-07-20T15:31:43;28.30;1.00
2657;DHT22;1338;48.176;11.792;2023-07-20T15:34:15;29.70;1.00
2657;DHT22;1338;48.176;11.792;2023-07-20T15:36:43;27.70;1.00
2657;DHT22;1338;48.176;11.792;2023-07-20T15:39:15;28.20;1.00
2657;DHT22;1338;48.176;11.792;2023-07-20T15:41:46;29.00;1.00
2657;DHT22;1338;48.176;11.792;2023-07-20T15:44:15;27.10;1.00
2657;DHT22;1338;48.176;11.792;2023-07-20T15:46:49;27.60;1.00
2657;DHT22;1338;48.176;11.792;2023-07-20T15:49:19;28.90;1.00
2657;DHT22;1338;48.176;11.792;2023-07-20T15:51:48;29.40;1.00
2657;DHT22;1338;48.176;11.792;2023-07-20T15:54:17;28.50;1.00
2657;DHT22;1338;48.176;11.792;2023-07-20T15:56:47;29.20;1.00
2657;DHT22;1338;48.176;11.792;2023-07-20T15:59:16;30.10;1.00
2657;DHT22;1338;48.176;11.792;2023-07-20T16:01:46;28.80;1.00
2657;DHT22;1338;48.176;11.792;2023-07-20T16:04:15;28.40;1.00
2657;DHT22;1338;48.176;11.792;2023-07-20T16:06:44;27.50;1.00
2657;DHT22;1338;48.176;11.792;2023-07-20T16:09:12;27.60;1.00
2657;DHT22;1338;48.176;11.792;2023-07-20T16:11:42;28.00;1.00
2657;DHT22;1338;48.176;11.792;2023-07-20T16:14:13;28.30;1.00
2657;DHT22;1338;48.176;11.792;2023-07-20T16:16:42;30.50;1.00
2657;DHT22;1338;48.176;11.792;2023-07-20T16:19:11;29.90;1.00
2657;DHT22;1338;48.176;11.792;2023-07-20T16:21:40;30.10;1.00
2657;DHT22;1338;48.176;11.792;2023-07-20T16:24:10;29.90;1.00